createdAt,value
2023-02-19T00:01:40.371Z,2.60
2023-02-19T00:04:14.373Z,2.72
2023-02-19T00:06:42.135Z,2.30
2023-02-19T00:09:13.597Z,2.75
2023-02-19T00:11:41.300Z,1.75
2023-02-19T00:14:08.916Z,2.70
2023-02-19T00:16:38.020Z,2.55
2023-02-19T00:19:08.013Z,2.67
2023-02-19T00:21:35.568Z,2.17
2023-02-19T00:24:05.832Z,2.00
2023-02-19T00:26:33.549Z,2.42
2023-02-19T00:29:01.476Z,1.77
2023-02-19T00:31:33.645Z,2.17
2023-02-19T00:34:05.224Z,2.30
2023-02-19T00:36:36.133Z,1.75
2023-02-19T00:39:04.819Z,2.70
2023-02-19T00:41:32.788Z,2.53
2023-02-19T00:44:05.149Z,1.80
2023-02-19T00:46:34.762Z,2.15
2023-02-19T00:49:05.871Z,2.70
2023-02-19T00:51:35.277Z,2.08
2023-02-19T00:54:04.765Z,1.80
2023-02-19T00:56:32.382Z,2.10
2023-02-19T00:58:59.770Z,2.55
2023-02-19T01:01:27.202Z,2.30
2023-02-19T01:03:54.897Z,2.10
2023-02-19T01:06:22.502Z,2.10
2023-02-19T01:08:50.185Z,1.60
2023-02-19T01:11:18.653Z,2.13
2023-02-19T01:13:46.159Z,2.25
2023-02-19T01:16:21.151Z,1.60
2023-02-19T01:18:49.363Z,2.55
2023-02-19T01:21:19.464Z,2.13
2023-02-19T01:23:47.042Z,2.22
2023-02-19T01:26:21.727Z,2.22
2023-02-19T01:28:49.168Z,2.60
2023-02-19T01:31:18.464Z,2.33
2023-02-19T01:33:47.503Z,2.72
2023-02-19T01:36:15.289Z,2.45
2023-02-19T01:38:42.865Z,2.17
2023-02-19T01:41:12.956Z,2.17
2023-02-19T01:43:58.765Z,2.28
2023-02-19T01:46:33.876Z,1.92
2023-02-19T01:49:23.333Z,2.40
2023-02-19T01:51:59.903Z,1.90
2023-02-19T01:54:30.439Z,2.40
2023-02-19T01:56:57.938Z,2.50
2023-02-19T01:59:25.474Z,1.92
2023-02-19T02:01:53.739Z,2.03
2023-02-19T02:04:21.090Z,2.17
2023-02-19T02:06:53.994Z,2.17
2023-02-19T02:09:41.669Z,1.90
2023-02-19T02:12:09.572Z,2.08
2023-02-19T02:14:39.594Z,2.03
2023-02-19T02:17:53.478Z,2.03
2023-02-19T02:20:45.196Z,2.30
2023-02-19T02:23:40.606Z,2.63
2023-02-19T02:26:30.119Z,2.30
2023-02-19T02:29:19.179Z,2.00
2023-02-19T02:31:51.431Z,2.38
2023-02-19T02:34:21.223Z,2.38
2023-02-19T02:36:51.570Z,2.40
2023-02-19T02:39:20.779Z,2.80
2023-02-19T02:42:14.840Z,1.88
2023-02-19T02:44:42.304Z,2.17
2023-02-19T02:47:30.647Z,2.33
2023-02-19T02:50:07.035Z,2.22
2023-02-19T02:52:55.184Z,2.30
2023-02-19T02:55:22.814Z,2.22
2023-02-19T02:57:50.155Z,2.03
2023-02-19T03:00:17.808Z,2.10
2023-02-19T03:02:45.894Z,2.13
2023-02-19T03:05:34.326Z,2.35
2023-02-19T03:08:13.361Z,2.15
2023-02-19T03:10:48.738Z,1.90
2023-02-19T03:13:44.803Z,2.00
2023-02-19T03:16:43.014Z,2.60
2023-02-19T03:19:20.861Z,2.10
2023-02-19T03:22:03.446Z,2.42
2023-02-19T03:24:52.058Z,2.50
2023-02-19T03:27:20.165Z,1.90
2023-02-19T03:29:48.340Z,1.95
2023-02-19T03:32:22.430Z,2.65
2023-02-19T03:34:55.798Z,2.20
2023-02-19T03:37:38.488Z,1.88
2023-02-19T03:40:06.586Z,2.20
2023-02-19T03:42:40.045Z,2.60
2023-02-19T03:45:14.717Z,2.25
2023-02-19T03:47:53.305Z,2.28
2023-02-19T03:50:53.302Z,2.20
2023-02-19T03:53:38.467Z,2.10
2023-02-19T03:56:05.989Z,2.15
2023-02-19T03:58:39.858Z,2.42
2023-02-19T04:01:10.766Z,2.13
2023-02-19T04:04:14.113Z,2.13
2023-02-19T04:06:42.441Z,1.98
2023-02-19T04:09:10.510Z,1.75
2023-02-19T04:11:38.395Z,2.17
2023-02-19T04:14:29.436Z,2.17
2023-02-19T04:17:00.502Z,2.20
2023-02-19T04:21:55.592Z,1.95
2023-02-19T04:24:35.287Z,2.30
2023-02-19T04:27:03.410Z,2.25
2023-02-19T04:29:34.196Z,2.40
2023-02-19T04:32:01.717Z,2.17
2023-02-19T04:34:29.604Z,2.38
2023-02-19T04:36:57.448Z,3.03
2023-02-19T04:39:24.835Z,3.28
2023-02-19T04:41:52.245Z,2.17
2023-02-19T04:44:19.725Z,2.90
2023-02-19T04:46:47.515Z,2.72
2023-02-19T04:49:15.188Z,2.22
2023-02-19T04:51:45.365Z,1.95
2023-02-19T04:54:12.833Z,2.63
2023-02-19T04:56:40.394Z,2.75
2023-02-19T04:59:07.802Z,2.20
2023-02-19T05:01:35.367Z,2.80
2023-02-19T05:04:04.985Z,2.20
2023-02-19T05:06:32.409Z,2.40
2023-02-19T05:09:00.141Z,2.40
2023-02-19T05:11:27.769Z,2.22
2023-02-19T05:14:00.219Z,2.63
2023-02-19T05:16:28.467Z,2.92
2023-02-19T05:18:56.098Z,2.92
2023-02-19T05:21:23.486Z,2.15
2023-02-19T05:23:50.911Z,2.35
2023-02-19T05:26:22.946Z,2.25
2023-02-19T05:28:51.618Z,2.30
2023-02-19T05:31:19.547Z,2.25
2023-02-19T05:33:51.219Z,2.15
2023-02-19T05:36:20.648Z,2.45
2023-02-19T05:38:48.661Z,2.75
2023-02-19T05:41:17.980Z,2.35
2023-02-19T05:43:46.610Z,2.47
2023-02-19T05:46:15.522Z,2.70
2023-02-19T05:48:43.571Z,2.47
2023-02-19T05:51:13.792Z,2.63
2023-02-19T05:53:41.296Z,2.47
2023-02-19T05:56:31.417Z,2.25
2023-02-19T05:58:59.781Z,1.92
2023-02-19T06:01:28.404Z,2.33
2023-02-19T06:03:57.738Z,2.85
2023-02-19T06:06:25.845Z,2.85
2023-02-19T06:08:53.483Z,2.60
2023-02-19T06:11:20.981Z,2.50
2023-02-19T06:13:51.200Z,2.35
2023-02-19T06:16:19.097Z,2.40
2023-02-19T06:18:46.982Z,2.60
2023-02-19T06:21:14.968Z,2.45
2023-02-19T06:23:42.542Z,2.72
2023-02-19T06:26:11.766Z,3.72
2023-02-19T06:28:39.568Z,3.03
2023-02-19T06:31:07.893Z,2.80
2023-02-19T06:33:35.874Z,2.67
2023-02-19T06:36:05.817Z,2.95
2023-02-19T06:38:33.555Z,3.90
2023-02-19T06:41:04.253Z,3.10
2023-02-19T06:43:33.604Z,3.13
2023-02-19T06:46:01.801Z,3.80
2023-02-19T06:48:29.801Z,4.68
2023-02-19T06:50:57.365Z,5.40
2023-02-19T06:53:25.031Z,4.30
2023-02-19T06:56:14.777Z,4.00
2023-02-19T06:58:42.085Z,5.40
2023-02-19T07:01:11.915Z,5.03
2023-02-19T07:03:39.512Z,5.05
2023-02-19T07:06:07.223Z,6.70
2023-02-19T07:08:35.711Z,5.63
2023-02-19T07:11:04.465Z,6.72
2023-02-19T07:13:31.904Z,5.47
2023-02-19T07:16:00.598Z,4.45
2023-02-19T07:18:29.528Z,5.47
2023-02-19T07:21:03.189Z,6.25
2023-02-19T07:23:31.344Z,4.75
2023-02-19T07:25:59.014Z,4.50
2023-02-19T07:28:26.790Z,4.88
2023-02-19T07:30:54.416Z,4.40
2023-02-19T07:33:22.372Z,4.95
2023-02-19T07:35:50.370Z,4.75
2023-02-19T07:38:20.173Z,4.75
2023-02-19T07:40:52.564Z,5.30
2023-02-19T07:43:23.057Z,4.53
2023-02-19T07:45:50.793Z,4.93
2023-02-19T07:48:18.363Z,3.95
2023-02-19T07:50:55.824Z,4.05
2023-02-19T07:53:23.863Z,6.43
2023-02-19T07:55:51.442Z,4.95
2023-02-19T07:58:19.214Z,5.53
2023-02-19T08:00:46.567Z,5.72
2023-02-19T08:03:15.741Z,5.93
2023-02-19T08:05:43.518Z,7.38
2023-02-19T08:08:14.692Z,7.55
2023-02-19T08:11:00.932Z,4.28
2023-02-19T08:13:31.456Z,3.75
2023-02-19T08:16:16.019Z,2.85
2023-02-19T08:18:46.662Z,2.92
2023-02-19T08:21:34.136Z,2.50
2023-02-19T08:24:01.643Z,2.30
2023-02-19T08:26:28.935Z,2.90
2023-02-19T08:28:56.130Z,3.40
2023-02-19T08:31:23.519Z,2.90
2023-02-19T08:33:50.900Z,2.53
2023-02-19T08:36:18.831Z,3.03
2023-02-19T08:38:46.066Z,3.17
2023-02-19T08:41:15.981Z,2.47
2023-02-19T08:43:43.292Z,3.63
2023-02-19T08:46:10.899Z,2.80
2023-02-19T08:48:38.541Z,2.75
2023-02-19T08:51:08.449Z,2.80
2023-02-19T08:53:36.470Z,3.42
2023-02-19T08:56:14.468Z,2.72
2023-02-19T08:58:41.856Z,2.10
2023-02-19T09:01:10.908Z,2.80
2023-02-19T09:03:39.385Z,2.53
2023-02-19T09:06:07.027Z,2.70
2023-02-19T09:08:36.277Z,2.92
2023-02-19T09:11:04.679Z,2.15
2023-02-19T09:13:31.918Z,2.40
2023-02-19T09:15:59.340Z,2.17
2023-02-19T09:18:26.998Z,2.75
2023-02-19T09:21:00.629Z,2.80
2023-02-19T09:23:28.192Z,2.58
2023-02-19T09:26:00.225Z,2.88
2023-02-19T09:28:28.080Z,2.60
2023-02-19T09:30:55.864Z,2.97
2023-02-19T09:33:23.314Z,2.70
2023-02-19T09:35:50.903Z,4.05
2023-02-19T09:38:18.313Z,2.22
2023-02-19T09:40:45.608Z,2.53
2023-02-19T09:43:20.056Z,2.67
2023-02-19T09:45:47.371Z,2.67
2023-02-19T09:48:14.783Z,3.58
2023-02-19T09:50:47.641Z,4.50
2023-02-19T09:53:17.784Z,2.78
2023-02-19T09:55:45.256Z,3.33
2023-02-19T09:58:27.296Z,3.83
2023-02-19T10:00:55.266Z,2.92
2023-02-19T10:03:48.386Z,3.20
2023-02-19T10:06:20.493Z,3.90
2023-02-19T10:08:48.187Z,3.15
2023-02-19T10:11:15.652Z,3.30
2023-02-19T10:13:50.954Z,3.42
2023-02-19T10:16:24.441Z,3.20
2023-02-19T10:18:51.804Z,3.78
2023-02-19T10:21:21.968Z,3.20
2023-02-19T10:23:51.342Z,3.45
2023-02-19T10:26:19.038Z,3.38
2023-02-19T10:28:47.291Z,3.00
2023-02-19T10:31:20.950Z,2.70
2023-02-19T10:33:52.764Z,2.13
2023-02-19T10:36:36.558Z,2.47
2023-02-19T10:39:22.226Z,2.22
2023-02-19T10:41:50.616Z,2.13
2023-02-19T10:44:27.449Z,1.75
2023-02-19T10:46:55.763Z,2.40
2023-02-19T10:49:26.582Z,2.28
2023-02-19T10:51:54.602Z,2.45
2023-02-19T10:54:35.528Z,2.55
2023-02-19T10:57:15.110Z,3.30
2023-02-19T10:59:52.952Z,3.00
2023-02-19T11:02:21.336Z,3.50
2023-02-19T11:05:18.261Z,2.38
2023-02-19T11:07:53.498Z,2.30
2023-02-19T11:10:33.121Z,2.47
2023-02-19T11:13:02.889Z,2.88
2023-02-19T11:15:33.741Z,2.95
2023-02-19T11:18:12.885Z,3.42
2023-02-19T11:20:51.466Z,3.53
2023-02-19T11:23:24.189Z,3.72
2023-02-19T11:25:52.948Z,4.05
2023-02-19T11:28:38.426Z,3.92
2023-02-19T11:31:25.128Z,4.07
2023-02-19T11:34:14.409Z,4.18
2023-02-19T11:36:41.849Z,3.85
2023-02-19T11:39:15.381Z,4.28
2023-02-19T11:41:52.080Z,4.05
2023-02-19T11:44:35.313Z,4.65
2023-02-19T11:47:42.535Z,3.70
2023-02-19T11:50:15.691Z,3.72
2023-02-19T11:52:53.178Z,4.38
2023-02-19T11:55:44.746Z,3.65
2023-02-19T11:58:37.255Z,3.30
2023-02-19T12:01:25.744Z,3.05
2023-02-19T12:04:05.628Z,3.33
2023-02-19T12:06:37.910Z,3.60
2023-02-19T12:09:25.568Z,3.22
2023-02-19T12:12:11.240Z,3.72
2023-02-19T12:14:53.792Z,3.95
2023-02-19T12:17:36.073Z,4.18
2023-02-19T12:20:41.011Z,4.50
2023-02-19T12:23:20.483Z,4.35
2023-02-19T12:26:09.847Z,2.88
2023-02-19T12:28:44.074Z,2.58
2023-02-19T12:31:42.649Z,2.78
2023-02-19T12:34:18.922Z,2.28
2023-02-19T12:36:59.012Z,2.58
2023-02-19T12:39:57.223Z,3.97
2023-02-19T12:42:59.696Z,2.35
2023-02-19T12:45:31.974Z,2.20
2023-02-19T12:48:43.847Z,2.33
2023-02-19T12:51:37.373Z,3.10
2023-02-19T12:54:15.106Z,2.63
2023-02-19T12:56:47.284Z,2.30
2023-02-19T12:59:23.728Z,2.13
2023-02-19T13:02:12.817Z,2.30
2023-02-19T13:05:05.898Z,2.97
2023-02-19T13:07:37.188Z,2.40
2023-02-19T13:10:27.039Z,2.42
2023-02-19T13:12:54.846Z,2.60
2023-02-19T13:15:41.709Z,2.83
2023-02-19T13:18:39.658Z,3.08
2023-02-19T13:21:06.900Z,2.85
2023-02-19T13:23:55.464Z,2.88
2023-02-19T13:27:00.662Z,2.58
2023-02-19T13:29:46.371Z,2.50
2023-02-19T13:32:39.923Z,3.00
2023-02-19T13:35:36.446Z,2.85
2023-02-19T13:38:03.729Z,3.00
2023-02-19T13:40:35.885Z,3.17
2023-02-19T13:43:04.986Z,3.92
2023-02-19T13:45:40.198Z,2.63
2023-02-19T13:48:15.375Z,3.28
2023-02-19T13:50:42.692Z,3.35
2023-02-19T13:53:41.549Z,3.00
2023-02-19T13:56:31.337Z,2.83
2023-02-19T13:59:11.385Z,3.17
2023-02-19T14:01:54.198Z,3.05
2023-02-19T14:04:43.961Z,3.13
2023-02-19T14:07:11.306Z,2.55
2023-02-19T14:09:41.310Z,3.28
2023-02-19T14:12:11.347Z,2.95
2023-02-19T14:14:43.544Z,2.63
2023-02-19T14:17:12.596Z,3.30
2023-02-19T14:19:43.086Z,4.32
2023-02-19T14:22:47.797Z,4.38
2023-02-19T14:25:28.370Z,3.70
2023-02-19T14:28:16.475Z,3.15
2023-02-19T14:30:49.959Z,2.83
2023-02-19T14:33:25.655Z,3.45
2023-02-19T14:36:14.254Z,4.25
2023-02-19T14:38:56.560Z,3.78
2023-02-19T14:41:24.671Z,3.83
2023-02-19T14:43:53.015Z,3.78
2023-02-19T14:46:41.969Z,4.35
2023-02-19T14:49:17.588Z,3.92
2023-02-19T14:51:45.684Z,4.47
2023-02-19T14:54:17.366Z,4.13
2023-02-19T14:56:48.293Z,4.25
2023-02-19T14:59:25.885Z,3.65
2023-02-19T15:01:57.789Z,3.60
2023-02-19T15:04:31.498Z,3.97
2023-02-19T15:07:00.684Z,4.32
2023-02-19T15:09:33.277Z,3.60
2023-02-19T15:12:00.736Z,3.60
2023-02-19T15:14:32.316Z,3.85
2023-02-19T15:17:02.404Z,3.65
2023-02-19T15:19:35.175Z,4.18
2023-02-19T15:22:02.945Z,4.55
2023-02-19T15:24:30.368Z,3.97
2023-02-19T15:26:57.741Z,3.58
2023-02-19T15:29:26.452Z,3.78
2023-02-19T15:31:58.310Z,4.03
2023-02-19T15:34:30.025Z,3.60
2023-02-19T15:37:07.611Z,3.35
2023-02-19T15:39:35.918Z,4.43
2023-02-19T15:42:05.693Z,4.30
2023-02-19T15:44:47.328Z,5.00
2023-02-19T15:47:16.653Z,4.50
2023-02-19T15:49:54.432Z,4.53
2023-02-19T15:52:32.251Z,5.32
2023-02-19T15:55:17.191Z,4.28
2023-02-19T15:57:47.238Z,5.05
2023-02-19T16:00:30.927Z,4.95
2023-02-19T16:02:58.358Z,5.68
2023-02-19T16:05:26.956Z,4.82
2023-02-19T16:08:13.145Z,7.00
2023-02-19T16:10:43.131Z,7.15
2023-02-19T16:13:11.761Z,7.05
2023-02-19T16:15:39.781Z,7.55
2023-02-19T16:18:12.027Z,7.15
2023-02-19T16:20:39.278Z,8.60
2023-02-19T16:23:14.106Z,9.98
2023-02-19T16:25:44.177Z,10.38
2023-02-19T16:28:14.096Z,9.80
2023-02-19T16:30:41.749Z,9.13
2023-02-19T16:33:36.485Z,10.10
2023-02-19T16:36:36.994Z,9.68
2023-02-19T16:39:08.389Z,10.48
2023-02-19T16:41:48.041Z,9.27
2023-02-19T16:44:21.056Z,9.63
2023-02-19T16:46:49.248Z,8.95
2023-02-19T16:49:16.563Z,8.02
2023-02-19T16:51:44.787Z,8.65
2023-02-19T16:54:12.771Z,7.35
2023-02-19T16:56:40.567Z,6.75
2023-02-19T16:59:08.227Z,6.75
2023-02-19T17:01:37.541Z,6.82
2023-02-19T17:04:08.988Z,6.05
2023-02-19T17:06:37.820Z,5.40
2023-02-19T17:09:06.523Z,5.15
2023-02-19T17:11:34.785Z,4.65
2023-02-19T17:14:03.537Z,3.88
2023-02-19T17:16:39.852Z,3.90
2023-02-19T17:19:13.106Z,3.30
2023-02-19T17:21:40.383Z,2.78
2023-02-19T17:24:08.051Z,2.63
2023-02-19T17:26:36.022Z,3.80
2023-02-19T17:29:05.297Z,3.97
2023-02-19T17:31:32.846Z,3.25
2023-02-19T17:34:00.300Z,3.58
2023-02-19T17:36:32.468Z,3.35
2023-02-19T17:39:00.169Z,3.17
2023-02-19T17:41:27.934Z,3.08
2023-02-19T17:43:55.250Z,3.20
2023-02-19T17:46:24.493Z,2.65
2023-02-19T17:48:51.853Z,3.90
2023-02-19T17:51:19.056Z,3.53
2023-02-19T17:53:49.025Z,2.88
2023-02-19T17:56:21.763Z,2.53
2023-02-19T17:58:49.165Z,2.70
2023-02-19T18:01:16.627Z,3.15
2023-02-19T18:03:44.436Z,2.78
2023-02-19T18:06:11.857Z,2.50
2023-02-19T18:08:39.322Z,3.05
2023-02-19T18:11:06.813Z,2.65
2023-02-19T18:13:37.337Z,2.70
2023-02-19T18:16:05.757Z,2.60
2023-02-19T18:18:32.982Z,2.80
2023-02-19T18:21:00.204Z,3.20
2023-02-19T18:23:27.490Z,2.78
2023-02-19T18:25:55.443Z,2.55
2023-02-19T18:28:22.977Z,2.65
2023-02-19T18:30:50.413Z,2.20
2023-02-19T18:33:17.693Z,3.10
2023-02-19T18:35:47.427Z,2.90
2023-02-19T18:38:15.581Z,3.13
2023-02-19T18:40:42.856Z,2.28
2023-02-19T18:43:10.538Z,3.20
2023-02-19T18:45:39.693Z,3.05
2023-02-19T18:48:09.546Z,3.78
2023-02-19T18:50:37.924Z,2.58
2023-02-19T18:53:07.504Z,2.90
2023-02-19T18:55:34.986Z,3.40
2023-02-19T18:58:02.227Z,2.70
2023-02-19T19:00:29.763Z,3.10
2023-02-19T19:03:00.214Z,3.83
2023-02-19T19:05:27.762Z,3.33
2023-02-19T19:07:56.597Z,3.60
2023-02-19T19:10:24.659Z,3.15
2023-02-19T19:12:52.200Z,3.45
2023-02-19T19:15:19.950Z,3.10
2023-02-19T19:17:47.966Z,3.28
2023-02-19T19:20:19.671Z,3.40
2023-02-19T19:22:49.906Z,3.33
2023-02-19T19:25:17.513Z,3.03
2023-02-19T19:27:50.358Z,3.05
2023-02-19T19:30:20.167Z,3.22
2023-02-19T19:32:49.581Z,3.53
2023-02-19T19:35:17.914Z,3.45
2023-02-19T19:37:45.701Z,3.50
2023-02-19T19:40:13.277Z,4.30
2023-02-19T19:42:42.009Z,3.80
2023-02-19T19:45:11.809Z,3.78
2023-02-19T19:47:39.377Z,3.83
2023-02-19T19:50:07.026Z,2.78
2023-02-19T19:52:34.690Z,3.38
2023-02-19T19:55:05.757Z,2.55
2023-02-19T19:57:33.157Z,3.40
2023-02-19T20:00:07.294Z,3.40
2023-02-19T20:02:34.642Z,3.05
2023-02-19T20:05:02.667Z,3.45
2023-02-19T20:07:30.240Z,2.97
2023-02-19T20:09:58.598Z,3.10
2023-02-19T20:12:25.937Z,3.00
2023-02-19T20:14:53.246Z,2.88
2023-02-19T20:17:20.987Z,3.05
2023-02-19T20:19:48.417Z,3.95
2023-02-19T20:22:19.366Z,4.20
2023-02-19T20:24:51.757Z,3.88
2023-02-19T20:27:19.557Z,3.25
2023-02-19T20:29:47.123Z,3.63
2023-02-19T20:32:18.450Z,3.35
2023-02-19T20:34:46.395Z,3.88
2023-02-19T20:37:14.949Z,3.42
2023-02-19T20:39:42.246Z,3.58
2023-02-19T20:42:09.448Z,4.28
2023-02-19T20:44:37.402Z,3.67
2023-02-19T20:47:04.948Z,3.63
2023-02-19T20:49:34.228Z,3.58
2023-02-19T20:52:04.891Z,3.72
2023-02-19T20:54:33.570Z,3.95
2023-02-19T20:57:02.296Z,4.03
2023-02-19T20:59:34.784Z,3.53
2023-02-19T21:02:03.281Z,5.00
2023-02-19T21:04:30.644Z,3.83
2023-02-19T21:06:58.859Z,4.45
2023-02-19T21:09:26.163Z,5.30
2023-02-19T21:11:53.446Z,4.40
2023-02-19T21:14:22.412Z,4.53
2023-02-19T21:16:49.750Z,4.13
2023-02-19T21:19:18.313Z,4.50
2023-02-19T21:21:45.718Z,4.75
2023-02-19T21:24:13.927Z,5.00
2023-02-19T21:26:42.266Z,4.75
2023-02-19T21:29:12.667Z,4.05
2023-02-19T21:31:41.763Z,4.13
2023-02-19T21:34:10.309Z,4.45
2023-02-19T21:36:37.544Z,3.60
2023-02-19T21:39:05.613Z,3.65
2023-02-19T21:41:35.317Z,4.17
2023-02-19T21:44:03.326Z,3.40
2023-02-19T21:46:30.854Z,3.88
2023-02-19T21:48:58.124Z,3.95
2023-02-19T21:51:31.001Z,3.35
2023-02-19T21:53:58.868Z,3.35
2023-02-19T21:56:27.790Z,3.63
2023-02-19T21:58:55.117Z,3.67
2023-02-19T22:01:33.931Z,3.45
2023-02-19T22:04:01.376Z,3.47
2023-02-19T22:06:29.674Z,3.78
2023-02-19T22:08:59.035Z,3.45
2023-02-19T22:11:26.723Z,3.53
2023-02-19T22:13:54.294Z,3.97
2023-02-19T22:16:21.852Z,3.65
2023-02-19T22:18:53.463Z,3.78
2023-02-19T22:21:32.411Z,3.55
2023-02-19T22:24:00.270Z,3.65
2023-02-19T22:26:29.526Z,3.60
2023-02-19T22:28:58.055Z,2.83
2023-02-19T22:31:26.092Z,4.05
2023-02-19T22:33:53.845Z,4.10
2023-02-19T22:36:25.594Z,3.85
2023-02-19T22:39:18.653Z,4.53
2023-02-19T22:41:45.854Z,4.15
2023-02-19T22:44:13.057Z,3.50
2023-02-19T22:46:40.348Z,3.63
2023-02-19T22:49:07.699Z,5.00
2023-02-19T22:51:35.680Z,4.50
2023-02-19T22:54:02.933Z,5.20
2023-02-19T22:56:30.316Z,4.88
2023-02-19T22:58:58.810Z,4.20
2023-02-19T23:01:26.245Z,4.38
2023-02-19T23:03:58.183Z,5.10
2023-02-19T23:06:33.001Z,4.20
2023-02-19T23:09:03.834Z,4.72
2023-02-19T23:11:37.270Z,5.55
2023-02-19T23:14:05.495Z,4.95
2023-02-19T23:16:35.957Z,5.60
2023-02-19T23:19:07.286Z,4.72
2023-02-19T23:21:36.077Z,5.13
2023-02-19T23:24:03.734Z,5.05
2023-02-19T23:26:31.051Z,4.30
2023-02-19T23:28:58.307Z,4.68
2023-02-19T23:31:26.889Z,5.47
2023-02-19T23:33:54.856Z,5.97
2023-02-19T23:36:23.929Z,6.57
2023-02-19T23:38:51.652Z,7.65
2023-02-19T23:41:19.023Z,7.38
2023-02-19T23:43:46.499Z,6.10
2023-02-19T23:46:17.682Z,5.90
2023-02-19T23:51:12.630Z,5.75
2023-02-19T23:53:40.134Z,5.43
2023-02-19T23:56:07.502Z,6.30
2023-02-19T23:58:36.016Z,5.40
